Time;durP1;ratioP1;P1;durP2;ratioP2;P2;SDS_P1;SDS_P2;PMS_P1;PMS_P2;Temp;Humidity;BMP_temperature;BMP_pressure;BME280_temperature;BME280_humidity;BME280_pressure;Samples;Min_cycle;Max_cycle;Signal;HPM_P1;HPM_P2
2023/03/21 00:02:06;;;;;;;27.13;18.55;;;29.90;69.90;;;;;;5023256;28;20029;-51
2023/03/21 00:04:32;;;;;;;29.88;18.33;;;29.90;70.20;;;;;;5023684;28;20040;-50
2023/03/21 00:06:59;;;;;;;26.10;17.85;;;29.90;70.30;;;;;;5023890;28;20191;-44
2023/03/21 00:09:26;;;;;;;27.83;18.77;;;29.90;70.10;;;;;;5025025;28;20088;-44
2023/03/21 00:11:52;;;;;;;24.55;18.50;;;29.90;70.10;;;;;;5024966;28;20089;-44
2023/03/21 00:14:19;;;;;;;30.42;18.33;;;29.80;70.20;;;;;;5024907;28;20036;-49
2023/03/21 00:16:49;;;;;;;23.52;18.45;;;29.80;70.10;;;;;;5025236;28;20041;-47
2023/03/21 00:19:19;;;;;;;30.52;18.60;;;29.80;70.00;;;;;;5024741;28;20028;-45
2023/03/21 00:21:46;;;;;;;23.70;18.73;;;29.70;70.20;;;;;;5025086;28;20215;-46
2023/03/21 00:24:12;;;;;;;25.90;18.63;;;29.70;69.90;;;;;;5007193;28;20038;-45
2023/03/21 00:26:39;;;;;;;26.45;19.02;;;29.70;69.70;;;;;;5024685;28;20056;-49
2023/03/21 00:29:06;;;;;;;24.77;18.30;;;29.70;69.80;;;;;;5025119;28;20041;-51
2023/03/21 00:31:35;;;;;;;21.50;19.02;;;29.70;69.80;;;;;;5024332;28;20193;-44
2023/03/21 00:34:02;;;;;;;24.83;19.27;;;29.70;69.80;;;;;;5024882;28;20041;-48
2023/03/21 00:36:28;;;;;;;22.05;18.20;;;29.60;69.80;;;;;;5024843;28;20273;-49
2023/03/21 00:38:55;;;;;;;23.13;19.48;;;29.60;69.80;;;;;;5024819;28;20034;-43
2023/03/21 00:41:21;;;;;;;22.33;19.83;;;29.60;70.00;;;;;;5024576;28;20041;-50
2023/03/21 00:43:48;;;;;;;25.25;19.02;;;29.60;69.50;;;;;;5025033;28;20037;-48
2023/03/21 00:46:15;;;;;;;21.17;18.60;;;29.60;69.60;;;;;;5024394;28;20060;-54
2023/03/21 00:48:42;;;;;;;23.80;19.10;;;29.60;69.70;;;;;;5025111;28;20075;-46
2023/03/21 00:51:25;;;;;;;22.77;19.50;;;29.60;69.70;;;;;;5007352;28;20264;-44
2023/03/21 00:53:57;;;;;;;25.88;19.65;;;29.60;69.60;;;;;;5024665;28;20065;-50
2023/03/21 00:56:24;;;;;;;25.37;19.47;;;29.50;69.60;;;;;;5024601;28;20026;-47
2023/03/21 00:58:51;;;;;;;24.05;19.40;;;29.50;69.50;;;;;;5025070;28;20025;-50
2023/03/21 01:01:19;;;;;;;25.40;20.02;;;29.50;69.50;;;;;;5024482;28;20174;-43
2023/03/21 01:03:49;;;;;;;31.17;19.77;;;29.50;69.60;;;;;;5025044;28;20026;-50
2023/03/21 01:06:18;;;;;;;26.23;19.60;;;29.50;69.60;;;;;;5024219;28;20030;-49
2023/03/21 01:08:47;;;;;;;28.42;20.05;;;29.50;69.60;;;;;;5024368;28;20021;-46
2023/03/21 01:11:17;;;;;;;22.23;18.73;;;29.40;69.50;;;;;;5024120;28;20034;-43
2023/03/21 01:13:44;;;;;;;21.95;19.58;;;29.50;69.50;;;;;;5024697;28;20068;-52
2023/03/21 01:16:12;;;;;;;25.75;20.58;;;29.40;69.40;;;;;;5023632;28;20021;-49
2023/03/21 01:18:41;;;;;;;29.67;18.90;;;29.40;69.60;;;;;;5015915;28;20029;-44
2023/03/21 01:21:11;;;;;;;26.73;19.42;;;29.00;69.60;;;;;;5015450;28;20030;-44
2023/03/21 01:23:39;;;;;;;28.90;20.10;;;28.70;70.30;;;;;;5013125;28;20030;-44
2023/03/21 01:26:07;;;;;;;31.92;20.15;;;28.50;70.80;;;;;;5003956;28;20338;-48
2023/03/21 01:28:37;;;;;;;40.67;19.73;;;28.30;71.60;;;;;;5004448;28;20029;-48
2023/03/21 01:31:05;;;;;;;39.47;20.10;;;28.20;72.10;;;;;;5014200;28;20030;-53
2023/03/21 01:33:33;;;;;;;35.30;20.17;;;28.10;71.80;;;;;;5024599;28;20104;-45
2023/03/21 01:36:00;;;;;;;27.38;20.30;;;28.10;72.20;;;;;;5027415;28;20018;-43
2023/03/21 01:38:28;;;;;;;25.17;19.88;;;28.00;72.40;;;;;;5027381;28;20022;-43
2023/03/21 01:40:55;;;;;;;35.17;21.38;;;28.20;71.80;;;;;;5026655;28;20065;-45
2023/03/21 01:43:35;;;;;;;29.98;19.98;;;28.30;71.30;;;;;;5027456;28;20025;-50
2023/03/21 01:46:21;;;;;;;26.90;20.27;;;28.50;71.00;;;;;;5025931;28;20038;-48
2023/03/21 01:49:04;;;;;;;24.38;20.13;;;28.60;70.60;;;;;;5026610;28;20109;-51
2023/03/21 01:51:37;;;;;;;29.35;20.58;;;28.60;70.60;;;;;;5026946;28;20223;-44
2023/03/21 01:54:06;;;;;;;26.10;20.67;;;28.70;70.10;;;;;;5026507;28;20045;-55
2023/03/21 01:56:37;;;;;;;29.65;20.77;;;28.70;70.00;;;;;;5024814;28;20034;-47
2023/03/21 01:59:27;;;;;;;25.33;20.55;;;28.70;69.80;;;;;;5023989;28;20333;-44
2023/03/21 02:01:56;;;;;;;29.85;20.00;;;28.70;69.70;;;;;;5025847;28;20205;-47
2023/03/21 02:04:27;;;;;;;39.85;20.65;;;28.70;69.50;;;;;;5007598;28;20101;-47
2023/03/21 02:07:13;;;;;;;41.55;21.75;;;28.80;69.50;;;;;;5014660;28;20026;-46
2023/03/21 02:09:44;;;;;;;32.00;20.75;;;28.80;70.00;;;;;;5018603;28;20030;-49
2023/03/21 02:12:11;;;;;;;31.25;20.08;;;28.80;70.10;;;;;;5006988;28;20034;-44
2023/03/21 02:14:38;;;;;;;26.65;19.73;;;28.70;69.90;;;;;;5007271;28;20291;-46
2023/03/21 02:17:22;;;;;;;25.45;19.98;;;28.70;69.60;;;;;;5006926;28;20022;-49
2023/03/21 02:19:49;;;;;;;26.90;19.83;;;28.70;69.60;;;;;;5006648;28;20230;-50
2023/03/21 02:22:21;;;;;;;27.70;20.45;;;28.70;69.50;;;;;;5006249;28;20033;-48
2023/03/21 02:25:23;;;;;;;27.90;21.95;;;28.70;69.50;;;;;;5004923;28;20057;-48
2023/03/21 02:28:14;;;;;;;29.20;22.93;;;28.70;69.60;;;;;;4982402;28;20221;-47
2023/03/21 02:30:40;;;;;;;33.35;22.52;;;28.80;69.80;;;;;;5005141;28;20323;-52
2023/03/21 02:33:22;;;;;;;28.58;20.80;;;28.70;69.80;;;;;;5013876;28;20093;-47
2023/03/21 02:36:24;;;;;;;35.30;21.85;;;28.70;69.60;;;;;;5005111;28;20045;-51
2023/03/21 02:39:29;;;;;;;34.87;20.90;;;28.70;69.70;;;;;;5004371;28;20102;-52
2023/03/21 02:42:09;;;;;;;24.55;20.50;;;28.70;69.70;;;;;;4955117;28;20042;-49
2023/03/21 02:44:40;;;;;;;26.08;20.40;;;28.70;70.00;;;;;;5015576;28;20147;-44
2023/03/21 02:47:22;;;;;;;22.02;19.63;;;28.70;69.90;;;;;;5026141;28;20289;-44
2023/03/21 02:50:06;;;;;;;28.23;20.15;;;28.70;69.60;;;;;;5025974;28;20330;-51
2023/03/21 02:52:35;;;;;;;29.77;19.90;;;28.70;69.60;;;;;;5026075;28;20046;-48
2023/03/21 02:55:04;;;;;;;24.90;19.45;;;28.70;70.00;;;;;;5026034;28;20310;-46
2023/03/21 02:57:32;;;;;;;27.40;20.05;;;28.70;69.70;;;;;;5025802;28;20209;-55
2023/03/21 03:00:00;;;;;;;22.38;18.95;;;28.70;69.60;;;;;;5025791;28;20053;-48
2023/03/21 03:02:28;;;;;;;25.67;18.98;;;28.70;69.70;;;;;;5008366;28;20021;-50
2023/03/21 03:04:55;;;;;;;24.45;19.25;;;28.70;69.90;;;;;;5025578;28;20368;-48
2023/03/21 03:07:27;;;;;;;25.80;19.77;;;28.70;69.60;;;;;;5008256;28;20372;-49
2023/03/21 03:10:10;;;;;;;24.08;20.85;;;28.70;69.60;;;;;;5025875;28;20260;-51
2023/03/21 03:12:55;;;;;;;26.30;21.02;;;28.70;69.80;;;;;;5025590;28;20380;-46
2023/03/21 03:15:34;;;;;;;27.95;20.52;;;28.70;69.60;;;;;;5025428;28;20021;-47
2023/03/21 03:18:13;;;;;;;28.13;21.55;;;28.70;69.60;;;;;;5025072;28;20097;-49
2023/03/21 03:20:56;;;;;;;25.20;22.60;;;28.70;69.60;;;;;;5025405;28;20021;-51
2023/03/21 03:23:32;;;;;;;25.58;22.25;;;28.70;69.80;;;;;;5025717;28;20038;-52
2023/03/21 03:26:15;;;;;;;26.77;22.38;;;28.70;69.60;;;;;;5025556;28;20025;-49
2023/03/21 03:28:51;;;;;;;28.13;24.83;;;28.70;69.60;;;;;;5025757;28;20044;-48
2023/03/21 03:31:24;;;;;;;33.08;25.60;;;28.70;69.60;;;;;;5025004;28;20218;-46
2023/03/21 03:33:55;;;;;;;30.67;24.00;;;28.70;69.60;;;;;;5025680;28;20038;-47
2023/03/21 03:36:29;;;;;;;29.92;23.95;;;28.70;69.80;;;;;;5025091;28;20018;-55
2023/03/21 03:38:56;;;;;;;29.52;23.65;;;28.70;70.00;;;;;;5024975;28;20026;-50
2023/03/21 03:41:27;;;;;;;26.50;22.45;;;28.60;69.90;;;;;;5024921;28;20053;-45
2023/03/21 03:43:58;;;;;;;29.10;21.85;;;28.60;70.20;;;;;;5025371;28;20045;-51
2023/03/21 03:46:24;;;;;;;23.55;20.98;;;28.60;70.00;;;;;;5025179;28;20026;-45
2023/03/21 03:49:19;;;;;;;26.50;21.23;;;28.50;70.10;;;;;;5025287;28;20042;-44
2023/03/21 03:51:51;;;;;;;24.23;20.00;;;28.60;69.90;;;;;;5024785;28;20064;-48
2023/03/21 03:54:23;;;;;;;25.23;20.90;;;28.60;70.00;;;;;;5024497;28;20057;-52
2023/03/21 03:56:50;;;;;;;24.77;19.30;;;28.60;70.40;;;;;;5025014;28;20334;-52
2023/03/21 03:59:23;;;;;;;27.42;19.63;;;28.60;70.30;;;;;;5025222;28;20098;-44
2023/03/21 04:01:51;;;;;;;23.13;19.50;;;28.50;70.00;;;;;;5024734;28;20021;-52
2023/03/21 04:04:17;;;;;;;29.67;19.92;;;28.50;70.30;;;;;;5025240;28;20049;-50
2023/03/21 04:06:50;;;;;;;21.75;19.45;;;28.40;70.40;;;;;;5024920;28;20017;-51
2023/03/21 04:09:17;;;;;;;24.80;19.38;;;28.40;70.30;;;;;;5025008;28;20036;-47
2023/03/21 04:11:44;;;;;;;24.00;19.70;;;28.40;70.20;;;;;;5024727;28;20097;-47
2023/03/21 04:14:12;;;;;;;23.52;19.70;;;28.40;70.70;;;;;;5024905;28;20036;-47
2023/03/21 04:16:38;;;;;;;22.88;20.02;;;28.40;70.60;;;;;;5024384;28;20099;-46
2023/03/21 04:19:05;;;;;;;21.40;19.13;;;28.30;70.60;;;;;;5025219;28;20344;-47
2023/03/21 04:21:32;;;;;;;23.20;19.65;;;28.30;70.80;;;;;;5024516;28;20026;-50
2023/03/21 04:23:58;;;;;;;24.73;18.17;;;28.30;70.70;;;;;;5024200;28;20318;-51
2023/03/21 04:26:31;;;;;;;21.42;19.13;;;28.30;70.90;;;;;;5024554;28;20014;-46
2023/03/21 04:29:01;;;;;;;22.15;18.95;;;28.30;71.00;;;;;;5025020;28;20040;-51
2023/03/21 04:31:35;;;;;;;22.13;19.65;;;28.20;71.10;;;;;;5024403;28;20029;-49
2023/03/21 04:34:08;;;;;;;25.05;19.35;;;28.20;71.00;;;;;;5024306;28;20040;-52
2023/03/21 04:36:43;;;;;;;25.02;19.38;;;28.20;71.10;;;;;;5024120;28;20018;-45
2023/03/21 04:39:13;;;;;;;21.45;19.15;;;28.20;71.10;;;;;;5024673;28;20034;-47
2023/03/21 04:41:43;;;;;;;24.90;18.67;;;28.20;71.20;;;;;;5024051;28;20120;-49
2023/03/21 04:44:11;;;;;;;22.55;18.88;;;28.20;71.20;;;;;;5024638;28;20048;-46
2023/03/21 04:46:38;;;;;;;24.27;20.05;;;28.20;71.20;;;;;;5024105;28;20373;-49
2023/03/21 04:49:05;;;;;;;21.13;18.35;;;28.20;71.40;;;;;;5024564;28;20017;-46
2023/03/21 04:51:33;;;;;;;24.92;19.42;;;28.20;71.20;;;;;;5024055;28;20346;-53
2023/03/21 04:54:00;;;;;;;25.58;18.63;;;28.10;71.30;;;;;;5024024;28;20241;-55
2023/03/21 04:56:32;;;;;;;25.83;19.35;;;28.10;71.30;;;;;;5024017;28;20044;-53
2023/03/21 04:59:02;;;;;;;26.20;18.77;;;28.10;71.20;;;;;;5024374;28;20022;-53
2023/03/21 05:01:29;;;;;;;22.40;18.80;;;28.10;71.30;;;;;;5024120;28;20030;-50
2023/03/21 05:04:00;;;;;;;20.15;18.05;;;28.10;71.50;;;;;;5024369;28;20294;-48
2023/03/21 05:06:27;;;;;;;22.85;19.40;;;28.10;71.50;;;;;;5026238;28;20096;-46
2023/03/21 05:08:58;;;;;;;21.60;19.13;;;28.10;71.50;;;;;;5028080;28;20045;-48
2023/03/21 05:11:31;;;;;;;21.02;18.83;;;28.10;71.50;;;;;;5027886;28;20214;-50
2023/03/21 05:13:59;;;;;;;22.38;18.75;;;28.10;71.30;;;;;;5027925;28;20042;-47
2023/03/21 05:16:29;;;;;;;23.08;19.17;;;28.10;71.30;;;;;;5027849;28;20081;-50
2023/03/21 05:18:58;;;;;;;21.58;19.20;;;28.00;71.20;;;;;;5028407;28;20090;-51
2023/03/21 05:21:28;;;;;;;22.33;18.98;;;28.00;71.60;;;;;;5027841;28;20029;-45
2023/03/21 05:23:57;;;;;;;21.30;19.02;;;28.00;71.60;;;;;;5028150;28;20033;-51
2023/03/21 05:26:24;;;;;;;26.30;19.35;;;28.00;71.70;;;;;;5027915;28;20037;-50
2023/03/21 05:28:50;;;;;;;22.38;18.75;;;27.90;71.80;;;;;;5027736;28;20022;-54
2023/03/21 05:31:19;;;;;;;23.13;18.73;;;28.00;72.00;;;;;;5027506;28;20041;-48
2023/03/21 05:33:46;;;;;;;21.10;18.83;;;28.00;72.10;;;;;;5027562;28;20033;-51
2023/03/21 05:36:13;;;;;;;24.02;18.88;;;27.90;71.80;;;;;;5027393;28;20033;-49
2023/03/21 05:38:45;;;;;;;20.90;18.70;;;27.90;71.70;;;;;;5027445;28;20101;-52
2023/03/21 05:41:16;;;;;;;23.40;19.38;;;27.90;71.80;;;;;;5027502;28;20057;-52
2023/03/21 05:43:43;;;;;;;24.83;18.85;;;28.00;71.90;;;;;;5027558;28;20041;-52
2023/03/21 05:46:10;;;;;;;24.08;18.52;;;27.90;71.70;;;;;;5027771;28;20137;-45
2023/03/21 05:48:38;;;;;;;21.45;18.27;;;27.90;71.80;;;;;;5027756;28;20084;-52
2023/03/21 05:51:05;;;;;;;20.88;18.70;;;27.90;71.80;;;;;;5027661;28;20261;-55
2023/03/21 05:53:31;;;;;;;22.23;19.10;;;27.90;71.60;;;;;;5027324;28;20026;-51
2023/03/21 05:55:58;;;;;;;24.67;19.48;;;27.90;71.60;;;;;;5027576;28;20025;-45
2023/03/21 05:58:24;;;;;;;21.20;18.63;;;27.90;71.60;;;;;;5027376;28;20029;-49
2023/03/21 06:00:51;;;;;;;21.23;18.92;;;27.90;71.70;;;;;;5026967;28;20049;-45
2023/03/21 06:03:18;;;;;;;21.52;19.17;;;27.80;71.60;;;;;;5027244;28;20040;-45
2023/03/21 06:05:44;;;;;;;21.33;18.98;;;27.80;71.70;;;;;;5027150;28;20030;-46
2023/03/21 06:08:11;;;;;;;20.73;18.58;;;27.80;71.60;;;;;;5026961;28;20030;-47
2023/03/21 06:10:38;;;;;;;21.55;19.35;;;27.80;71.80;;;;;;5027155;28;20029;-55
2023/03/21 06:13:05;;;;;;;23.85;19.52;;;27.90;72.00;;;;;;5027463;28;20029;-53
2023/03/21 06:15:31;;;;;;;21.42;18.65;;;27.80;72.20;;;;;;5026573;28;20026;-52
2023/03/21 06:17:58;;;;;;;21.05;18.77;;;27.80;72.10;;;;;;5025879;28;20183;-51
2023/03/21 06:20:25;;;;;;;23.52;18.45;;;27.80;72.20;;;;;;5027151;28;20077;-49
2023/03/21 06:22:51;;;;;;;20.85;18.02;;;27.80;72.30;;;;;;5026411;28;20034;-51
2023/03/21 06:25:18;;;;;;;21.27;19.08;;;27.80;72.30;;;;;;5026919;28;20154;-50
2023/03/21 06:27:44;;;;;;;22.67;20.20;;;27.80;72.50;;;;;;5026846;28;20093;-53
2023/03/21 06:30:12;;;;;;;24.27;19.23;;;27.80;72.20;;;;;;5026769;28;20029;-51
2023/03/21 06:32:39;;;;;;;23.13;18.70;;;27.80;72.00;;;;;;5026924;28;20270;-53
2023/03/21 06:35:06;;;;;;;23.50;19.92;;;27.70;72.00;;;;;;5026514;28;20025;-50
2023/03/21 06:37:32;;;;;;;21.48;18.92;;;27.80;72.30;;;;;;5026225;28;20034;-52
2023/03/21 06:39:59;;;;;;;22.85;19.25;;;27.80;72.30;;;;;;5026448;28;20046;-50
2023/03/21 06:42:26;;;;;;;21.45;18.95;;;27.70;72.30;;;;;;5026353;28;20093;-46
2023/03/21 06:44:52;;;;;;;20.17;18.02;;;27.70;72.80;;;;;;5026579;28;20033;-51
2023/03/21 06:47:19;;;;;;;22.42;19.02;;;27.70;72.30;;;;;;5026248;28;20033;-52
2023/03/21 06:49:45;;;;;;;23.65;18.67;;;27.70;72.30;;;;;;5026649;28;20333;-53
2023/03/21 06:52:12;;;;;;;24.48;18.23;;;27.70;72.40;;;;;;5025954;28;20231;-52
2023/03/21 06:54:39;;;;;;;22.33;17.88;;;27.70;72.10;;;;;;5026572;28;20355;-50
2023/03/21 06:57:05;;;;;;;23.15;19.70;;;27.70;72.30;;;;;;5026290;28;20344;-49
2023/03/21 06:59:32;;;;;;;20.23;18.05;;;27.70;72.30;;;;;;5026741;28;20097;-54
2023/03/21 07:01:59;;;;;;;21.80;18.45;;;27.80;72.20;;;;;;5026093;28;20076;-51
2023/03/21 07:04:25;;;;;;;23.38;19.35;;;27.80;72.00;;;;;;5026542;28;20105;-53
2023/03/21 07:06:52;;;;;;;20.42;18.27;;;27.80;72.30;;;;;;5025750;28;20028;-50
2023/03/21 07:09:23;;;;;;;22.83;18.65;;;27.70;72.30;;;;;;5008699;28;20107;-46
2023/03/21 07:11:52;;;;;;;22.67;18.52;;;27.70;72.40;;;;;;5025845;28;20057;-56
2023/03/21 07:14:19;;;;;;;26.27;19.48;;;27.70;72.50;;;;;;5025926;28;20028;-53
2023/03/21 07:16:45;;;;;;;21.48;18.70;;;27.70;72.30;;;;;;5026167;28;20084;-51
2023/03/21 07:19:12;;;;;;;22.10;17.67;;;27.70;72.40;;;;;;5026150;28;20187;-53
2023/03/21 07:21:39;;;;;;;21.30;18.23;;;27.60;72.50;;;;;;5026244;28;20041;-47
2023/03/21 07:24:06;;;;;;;20.90;18.20;;;27.60;72.50;;;;;;5026057;28;20038;-57
2023/03/21 07:26:32;;;;;;;20.73;18.23;;;27.60;72.50;;;;;;5025757;28;20104;-51
2023/03/21 07:28:59;;;;;;;21.13;18.63;;;27.50;72.50;;;;;;5024123;28;20100;-49
2023/03/21 07:31:25;;;;;;;19.45;17.50;;;27.50;72.70;;;;;;5025073;28;20089;-53
2023/03/21 07:33:53;;;;;;;20.55;18.30;;;27.50;72.90;;;;;;5025694;28;20030;-52
2023/03/21 07:36:20;;;;;;;23.05;18.38;;;27.50;73.00;;;;;;5025347;28;20017;-52
2023/03/21 07:38:46;;;;;;;22.55;17.98;;;27.50;73.10;;;;;;5025289;28;20024;-54
2023/03/21 07:41:14;;;;;;;21.58;17.88;;;27.50;73.20;;;;;;5025007;28;20046;-53
2023/03/21 07:43:40;;;;;;;21.65;18.63;;;27.50;73.30;;;;;;5025945;28;20093;-52
2023/03/21 07:46:07;;;;;;;23.92;17.55;;;27.50;73.40;;;;;;5025099;28;20098;-53
2023/03/21 07:48:34;;;;;;;22.25;17.65;;;27.40;73.30;;;;;;5025700;28;20034;-51
2023/03/21 07:51:01;;;;;;;21.52;17.80;;;27.40;73.20;;;;;;5025206;28;20045;-52
2023/03/21 07:53:27;;;;;;;23.63;19.38;;;27.30;73.20;;;;;;5024956;28;20041;-49
2023/03/21 07:55:55;;;;;;;19.13;17.23;;;27.30;73.30;;;;;;5025036;28;20060;-48
2023/03/21 07:58:23;;;;;;;20.35;18.05;;;27.30;73.30;;;;;;5025163;28;20057;-49
2023/03/21 08:00:51;;;;;;;20.38;17.77;;;27.30;73.20;;;;;;5024706;28;20292;-51
2023/03/21 08:03:17;;;;;;;20.92;18.73;;;27.30;73.20;;;;;;5024983;28;20025;-53
2023/03/21 08:05:45;;;;;;;21.40;18.58;;;27.30;73.20;;;;;;5024527;28;20044;-54
2023/03/21 08:08:12;;;;;;;20.33;18.23;;;27.30;73.40;;;;;;5024752;28;20030;-49
2023/03/21 08:10:38;;;;;;;21.30;17.58;;;27.30;73.40;;;;;;5025083;28;20034;-50
2023/03/21 08:13:05;;;;;;;21.90;18.10;;;27.30;73.20;;;;;;5024758;28;20025;-54
2023/03/21 08:15:31;;;;;;;21.52;17.42;;;27.20;73.10;;;;;;5024431;28;20025;-53
2023/03/21 08:17:59;;;;;;;26.20;17.48;;;27.30;73.20;;;;;;5024844;28;20057;-49
2023/03/21 08:20:26;;;;;;;19.30;17.05;;;27.30;73.20;;;;;;5024483;28;20084;-47
2023/03/21 08:22:53;;;;;;;18.92;17.15;;;27.30;73.00;;;;;;5024254;28;20097;-48
2023/03/21 08:25:21;;;;;;;20.25;17.17;;;27.30;73.20;;;;;;5024577;28;20317;-47
2023/03/21 08:27:49;;;;;;;22.38;18.15;;;27.30;73.30;;;;;;5024500;28;20021;-48
2023/03/21 08:30:21;;;;;;;21.25;17.20;;;27.30;73.20;;;;;;5024203;28;20021;-49
2023/03/21 08:32:48;;;;;;;20.95;17.70;;;27.30;73.20;;;;;;5024475;28;20026;-49
2023/03/21 08:35:18;;;;;;;21.77;18.05;;;27.30;73.20;;;;;;5024282;28;20337;-52
2023/03/21 08:37:44;;;;;;;19.75;17.65;;;27.30;73.20;;;;;;5024944;28;20355;-54
2023/03/21 08:40:14;;;;;;;20.95;18.08;;;27.30;73.50;;;;;;5023757;28;20037;-48
2023/03/21 08:42:42;;;;;;;19.98;17.40;;;27.30;73.40;;;;;;5024177;28;20033;-48
2023/03/21 08:45:10;;;;;;;20.25;17.52;;;27.30;73.40;;;;;;5023341;28;20060;-47
2023/03/21 08:47:37;;;;;;;23.88;18.13;;;27.30;73.30;;;;;;5024138;28;20066;-48
2023/03/21 08:50:05;;;;;;;21.42;17.60;;;27.30;73.30;;;;;;5024035;28;20013;-52
2023/03/21 08:52:32;;;;;;;20.02;17.98;;;27.30;73.10;;;;;;5024003;28;20037;-44
2023/03/21 08:55:00;;;;;;;19.83;17.45;;;27.30;73.30;;;;;;5024079;28;20034;-58
2023/03/21 08:57:28;;;;;;;21.38;18.05;;;27.30;73.40;;;;;;5024108;28;20014;-51
2023/03/21 08:59:54;;;;;;;22.05;17.00;;;27.30;73.30;;;;;;5024202;28;20101;-46
2023/03/21 09:02:21;;;;;;;20.60;17.35;;;27.30;73.50;;;;;;5023897;28;20022;-45
2023/03/21 09:04:48;;;;;;;20.23;17.88;;;27.30;73.30;;;;;;5023973;28;20384;-45
2023/03/21 09:07:16;;;;;;;18.98;16.85;;;27.30;72.90;;;;;;5023749;28;20041;-44
2023/03/21 09:09:43;;;;;;;23.10;17.38;;;27.30;73.00;;;;;;5023819;28;20096;-48
2023/03/21 09:12:10;;;;;;;19.75;17.65;;;27.40;73.00;;;;;;5023888;28;20034;-47
2023/03/21 09:14:36;;;;;;;20.90;17.13;;;27.30;72.80;;;;;;5024251;28;20026;-50
2023/03/21 09:17:03;;;;;;;24.45;17.77;;;27.30;72.80;;;;;;5023851;28;20022;-46
2023/03/21 09:19:30;;;;;;;20.35;16.83;;;27.40;72.90;;;;;;5024194;28;20093;-44
2023/03/21 09:21:57;;;;;;;19.58;17.50;;;27.40;72.80;;;;;;5024021;28;20041;-46
2023/03/21 09:24:25;;;;;;;20.02;17.75;;;27.40;72.70;;;;;;5024263;28;20140;-43
2023/03/21 09:26:51;;;;;;;21.40;17.05;;;27.40;72.80;;;;;;5023758;28;20080;-49
2023/03/21 09:29:20;;;;;;;19.70;17.60;;;27.40;73.00;;;;;;5024001;28;20038;-53
2023/03/21 09:31:47;;;;;;;20.23;17.70;;;27.40;73.00;;;;;;5023568;28;20022;-45
2023/03/21 09:34:14;;;;;;;23.00;17.15;;;27.30;72.90;;;;;;5023675;28;20092;-46
2023/03/21 09:36:43;;;;;;;21.63;16.95;;;27.30;73.00;;;;;;5023575;28;20018;-46
2023/03/21 09:39:11;;;;;;;21.25;16.70;;;27.30;73.00;;;;;;5024049;28;20022;-50
2023/03/21 09:42:03;;;;;;;22.55;17.10;;;27.30;73.00;;;;;;5024121;28;20042;-47
2023/03/21 09:44:48;;;;;;;24.65;17.85;;;27.30;73.10;;;;;;5024594;28;20049;-50
2023/03/21 09:47:33;;;;;;;20.83;17.77;;;27.30;73.10;;;;;;5013661;28;20042;-53
2023/03/21 09:50:15;;;;;;;19.73;17.17;;;27.30;73.40;;;;;;5003950;28;20081;-46
2023/03/21 09:52:42;;;;;;;;;;;27.30;72.90;;;;;;5005088;28;20334;-47
2023/03/21 09:55:29;;;;;;;21.05;17.88;;;27.30;73.00;;;;;;5007673;28;19901;-47
2023/03/21 09:58:03;;;;;;;24.38;17.10;;;27.30;72.90;;;;;;5017498;28;20033;-44
2023/03/21 10:00:45;;;;;;;22.45;17.50;;;27.30;72.90;;;;;;5026911;28;20044;-45
2023/03/21 10:03:25;;;;;;;22.02;17.40;;;27.30;72.80;;;;;;5027298;28;20076;-48
2023/03/21 10:06:00;;;;;;;21.02;17.48;;;27.30;72.80;;;;;;5026848;28;20060;-50
2023/03/21 10:08:36;;;;;;;25.85;17.38;;;27.30;72.70;;;;;;5026842;28;20034;-42
2023/03/21 10:11:12;;;;;;;22.48;16.92;;;27.30;72.60;;;;;;5026664;28;20021;-45
2023/03/21 10:13:47;;;;;;;21.25;17.23;;;27.30;72.40;;;;;;5027077;28;20088;-44
2023/03/21 10:16:25;;;;;;;25.08;17.05;;;27.30;72.30;;;;;;5026692;28;20022;-49
2023/03/21 10:18:53;;;;;;;18.85;16.77;;;27.30;72.40;;;;;;5026952;28;20046;-48
2023/03/21 10:21:25;;;;;;;22.40;17.45;;;27.30;72.70;;;;;;5026616;28;20022;-52
2023/03/21 10:23:54;;;;;;;22.38;17.27;;;27.40;72.00;;;;;;5026818;28;20041;-42
2023/03/21 10:26:25;;;;;;;20.08;17.00;;;27.40;71.90;;;;;;5026544;28;20018;-44
2023/03/21 10:28:54;;;;;;;21.60;16.75;;;27.30;72.10;;;;;;5026999;28;20088;-41
2023/03/21 10:31:25;;;;;;;22.63;17.63;;;27.30;71.80;;;;;;5026368;28;20097;-48
2023/03/21 10:33:56;;;;;;;20.17;16.48;;;27.30;71.80;;;;;;5026357;28;20053;-48
2023/03/21 10:36:29;;;;;;;20.80;17.25;;;27.40;71.70;;;;;;5026386;28;20022;-49
2023/03/21 10:39:03;;;;;;;22.30;17.98;;;27.30;72.00;;;;;;5026490;28;20026;-45
2023/03/21 10:41:31;;;;;;;25.95;18.40;;;27.30;72.00;;;;;;5026116;28;20076;-52
2023/03/21 10:44:13;;;;;;;21.40;17.58;;;27.30;72.20;;;;;;5026563;28;20076;-45
2023/03/21 10:47:04;;;;;;;22.52;17.08;;;27.30;72.00;;;;;;5026468;28;20036;-47
2023/03/21 10:49:31;;;;;;;28.05;18.23;;;27.30;72.60;;;;;;5020554;28;20329;-56
2023/03/21 10:52:02;;;;;;;23.33;17.85;;;27.20;73.30;;;;;;5026162;28;20026;-53
2023/03/21 10:54:32;;;;;;;23.90;17.57;;;27.20;73.20;;;;;;5025869;28;20025;-53
2023/03/21 10:57:13;;;;;;;28.85;18.13;;;27.20;73.10;;;;;;5026031;28;20033;-52
2023/03/21 10:59:48;;;;;;;28.80;18.13;;;27.20;73.00;;;;;;5026061;28;20049;-52
2023/03/21 11:02:29;;;;;;;27.90;17.90;;;27.20;73.10;;;;;;5024498;28;20037;-53
2023/03/21 11:04:57;;;;;;;25.90;18.80;;;27.20;73.20;;;;;;5025006;28;20025;-51
2023/03/21 11:07:30;;;;;;;30.35;19.30;;;27.30;73.40;;;;;;5024652;28;20036;-48
2023/03/21 11:10:11;;;;;;;29.13;19.17;;;27.30;73.30;;;;;;5012646;28;20326;-46
2023/03/21 11:12:40;;;;;;;30.33;19.00;;;27.30;73.80;;;;;;5025647;28;20038;-46
2023/03/21 11:15:40;;;;;;;46.05;19.33;;;27.30;74.10;;;;;;5025571;28;20052;-53
2023/03/21 11:18:18;;;;;;;31.10;18.95;;;27.20;74.40;;;;;;5025996;28;20033;-58
2023/03/21 11:20:54;;;;;;;41.15;19.88;;;27.20;74.50;;;;;;5019117;28;20271;-51
2023/03/21 11:23:25;;;;;;;52.83;20.25;;;27.20;74.50;;;;;;5025994;28;20037;-53
2023/03/21 11:25:51;;;;;;;39.72;19.50;;;27.30;74.80;;;;;;5025589;28;20026;-57
2023/03/21 11:28:22;;;;;;;31.30;18.70;;;27.30;74.80;;;;;;5021552;28;20199;-51
2023/03/21 11:30:50;;;;;;;45.05;20.70;;;27.30;75.30;;;;;;5020303;28;20029;-45
2023/03/21 11:33:19;;;;;;;34.50;19.70;;;27.30;75.40;;;;;;5025881;28;20026;-46
2023/03/21 11:36:05;;;;;;;30.58;19.30;;;27.30;75.30;;;;;;5025291;28;20069;-47
2023/03/21 11:38:40;;;;;;;33.72;19.70;;;27.30;75.30;;;;;;5024355;28;20029;-47
2023/03/21 11:41:07;;;;;;;34.72;18.80;;;27.20;75.40;;;;;;5025299;28;20109;-45
2023/03/21 11:43:38;;;;;;;28.30;19.98;;;27.30;75.50;;;;;;5026082;28;20353;-51
2023/03/21 11:46:08;;;;;;;36.37;19.07;;;27.30;75.40;;;;;;5025810;28;20034;-47
2023/03/21 11:48:45;;;;;;;32.65;18.65;;;27.40;75.30;;;;;;5025847;28;20033;-49
2023/03/21 11:51:27;;;;;;;30.13;19.63;;;27.30;75.40;;;;;;5024558;28;20034;-49
2023/03/21 11:54:12;;;;;;;32.42;18.70;;;27.40;75.50;;;;;;5026340;28;20051;-47
2023/03/21 11:56:48;;;;;;;36.72;27.98;;;27.40;75.60;;;;;;5025435;28;20124;-48
2023/03/21 11:59:47;;;;;;;28.63;20.25;;;27.40;75.80;;;;;;5025510;28;20037;-54
2023/03/21 12:02:54;;;;;;;26.80;20.27;;;27.40;75.80;;;;;;5025240;28;20038;-48
2023/03/21 12:05:33;;;;;;;93.28;24.83;;;27.40;75.90;;;;;;5025281;28;20056;-48
2023/03/21 12:08:58;;;;;;;44.50;21.02;;;27.40;76.30;;;;;;5025103;28;20104;-53
2023/03/21 12:11:45;;;;;;;40.88;21.20;;;27.40;76.50;;;;;;4945806;29;20067;-48
2023/03/21 12:14:28;;;;;;;33.40;20.73;;;27.40;76.90;;;;;;5019945;28;20053;-44
2023/03/21 12:17:20;;;;;;;30.58;20.73;;;27.50;76.90;;;;;;5024222;28;20025;-50
2023/03/21 12:19:50;;;;;;;30.30;20.17;;;27.50;76.90;;;;;;5025152;28;20034;-47
2023/03/21 12:22:53;;;;;;;30.67;19.92;;;27.50;77.20;;;;;;5025053;28;20057;-53
2023/03/21 12:25:32;;;;;;;28.73;19.58;;;27.50;77.50;;;;;;5024987;28;20040;-49
2023/03/21 12:28:14;;;;;;;29.42;19.83;;;27.50;77.70;;;;;;5024916;28;20034;-50
2023/03/21 12:31:04;;;;;;;25.90;19.70;;;27.40;78.10;;;;;;5024851;28;20121;-46
2023/03/21 12:34:04;;;;;;;28.27;19.13;;;27.40;78.50;;;;;;5024192;28;20026;-49
2023/03/21 12:36:49;;;;;;;26.20;19.30;;;27.50;78.40;;;;;;5024849;28;20026;-45
2023/03/21 12:39:36;;;;;;;29.27;19.27;;;27.40;78.50;;;;;;5024739;28;20029;-46
2023/03/21 12:42:27;;;;;;;27.65;20.13;;;27.40;78.60;;;;;;5025185;28;20105;-45
2023/03/21 12:45:01;;;;;;;26.63;19.13;;;27.50;78.50;;;;;;5024977;28;20036;-51
2023/03/21 12:47:31;;;;;;;27.63;18.77;;;27.50;78.50;;;;;;5025143;28;20034;-48
2023/03/21 12:50:36;;;;;;;28.38;18.80;;;27.50;78.60;;;;;;5024978;28;20022;-52
2023/03/21 12:53:34;;;;;;;27.42;18.85;;;27.50;78.70;;;;;;5025217;28;20045;-45